sensor_id;sensor_type;location;lat;lon;timestamp;temperature;humidity
22908;DHT22;11620;50.050;8.690;2022-08-03T00:02:45;25.00;99.90
22908;DHT22;11620;50.050;8.690;2022-08-03T00:05:32;24.90;99.90
22908;DHT22;11620;50.050;8.690;2022-08-03T00:08:18;24.90;99.90
22908;DHT22;11620;50.050;8.690;2022-08-03T00:11:05;24.80;99.90
22908;DHT22;11620;50.050;8.690;2022-08-03T00:13:52;24.80;99.90
22908;DHT22;11620;50.050;8.690;2022-08-03T00:16:38;24.70;99.90
22908;DHT22;11620;50.050;8.690;2022-08-03T00:19:25;24.60;99.90
22908;DHT22;11620;50.050;8.690;2022-08-03T00:22:11;24.60;99.90
22908;DHT22;11620;50.050;8.690;2022-08-03T00:24:59;24.60;99.90
22908;DHT22;11620;50.050;8.690;2022-08-03T00:27:45;24.50;99.90
22908;DHT22;11620;50.050;8.690;2022-08-03T00:30:32;24.40;99.90
22908;DHT22;11620;50.050;8.690;2022-08-03T00:33:18;24.40;99.90
22908;DHT22;11620;50.050;8.690;2022-08-03T00:36:05;24.30;99.90
22908;DHT22;11620;50.050;8.690;2022-08-03T00:38:51;24.20;99.90
22908;DHT22;11620;50.050;8.690;2022-08-03T00:41:37;24.20;99.90
22908;DHT22;11620;50.050;8.690;2022-08-03T00:44:24;24.10;99.90
22908;DHT22;11620;50.050;8.690;2022-08-03T00:47:11;24.00;99.90
22908;DHT22;11620;50.050;8.690;2022-08-03T00:49:57;24.00;99.90
22908;DHT22;11620;50.050;8.690;2022-08-03T00:52:44;24.00;99.90
22908;DHT22;11620;50.050;8.690;2022-08-03T00:55:30;23.90;99.90
22908;DHT22;11620;50.050;8.690;2022-08-03T00:58:17;23.90;99.90
22908;DHT22;11620;50.050;8.690;2022-08-03T01:01:03;23.90;99.90
22908;DHT22;11620;50.050;8.690;2022-08-03T01:03:52;23.90;99.90
22908;DHT22;11620;50.050;8.690;2022-08-03T01:09:54;23.90;99.90
22908;DHT22;11620;50.050;8.690;2022-08-03T01:21:36;23.70;99.90
22908;DHT22;11620;50.050;8.690;2022-08-03T01:24:49;23.60;99.90
22908;DHT22;11620;50.050;8.690;2022-08-03T01:27:53;23.60;99.90
22908;DHT22;11620;50.050;8.690;2022-08-03T01:30:44;23.60;99.90
22908;DHT22;11620;50.050;8.690;2022-08-03T01:33:39;23.40;99.90
22908;DHT22;11620;50.050;8.690;2022-08-03T01:36:34;23.30;99.90
22908;DHT22;11620;50.050;8.690;2022-08-03T01:39:21;23.30;99.90
22908;DHT22;11620;50.050;8.690;2022-08-03T01:42:10;23.20;99.90
22908;DHT22;11620;50.050;8.690;2022-08-03T01:45:00;23.20;99.90
22908;DHT22;11620;50.050;8.690;2022-08-03T01:47:47;23.20;99.90
22908;DHT22;11620;50.050;8.690;2022-08-03T01:50:34;23.20;99.90
22908;DHT22;11620;50.050;8.690;2022-08-03T01:53:21;23.10;99.90
22908;DHT22;11620;50.050;8.690;2022-08-03T01:56:09;23.10;99.90
22908;DHT22;11620;50.050;8.690;2022-08-03T01:58:56;23.10;99.90
22908;DHT22;11620;50.050;8.690;2022-08-03T02:01:46;23.10;99.90
22908;DHT22;11620;50.050;8.690;2022-08-03T02:04:34;23.10;99.90
22908;DHT22;11620;50.050;8.690;2022-08-03T02:07:23;23.10;99.90
22908;DHT22;11620;50.050;8.690;2022-08-03T02:10:12;23.00;99.90
22908;DHT22;11620;50.050;8.690;2022-08-03T02:13:00;23.00;99.90
22908;DHT22;11620;50.050;8.690;2022-08-03T02:15:47;23.00;99.90
22908;DHT22;11620;50.050;8.690;2022-08-03T02:18:34;22.80;99.90
22908;DHT22;11620;50.050;8.690;2022-08-03T02:21:25;22.80;99.90
22908;DHT22;11620;50.050;8.690;2022-08-03T02:24:12;22.80;99.90
22908;DHT22;11620;50.050;8.690;2022-08-03T02:27:00;22.80;99.90
22908;DHT22;11620;50.050;8.690;2022-08-03T02:29:52;22.80;99.90
22908;DHT22;11620;50.050;8.690;2022-08-03T02:32:41;22.80;99.90
22908;DHT22;11620;50.050;8.690;2022-08-03T02:35:29;22.80;99.90
22908;DHT22;11620;50.050;8.690;2022-08-03T02:38:20;22.80;99.90
22908;DHT22;11620;50.050;8.690;2022-08-03T02:41:10;22.80;99.90
22908;DHT22;11620;50.050;8.690;2022-08-03T02:44:01;22.70;99.90
22908;DHT22;11620;50.050;8.690;2022-08-03T02:46:53;22.60;99.90
22908;DHT22;11620;50.050;8.690;2022-08-03T02:49:41;22.50;99.90
22908;DHT22;11620;50.050;8.690;2022-08-03T02:52:29;22.50;99.90
22908;DHT22;11620;50.050;8.690;2022-08-03T02:55:19;22.50;99.90
22908;DHT22;11620;50.050;8.690;2022-08-03T02:58:07;22.40;99.90
22908;DHT22;11620;50.050;8.690;2022-08-03T03:00:54;22.40;99.90
22908;DHT22;11620;50.050;8.690;2022-08-03T03:03:41;22.50;99.90
22908;DHT22;11620;50.050;8.690;2022-08-03T03:06:28;22.50;99.90
22908;DHT22;11620;50.050;8.690;2022-08-03T03:09:16;22.40;99.90
22908;DHT22;11620;50.050;8.690;2022-08-03T03:12:03;22.40;99.90
22908;DHT22;11620;50.050;8.690;2022-08-03T03:14:49;22.40;99.90
22908;DHT22;11620;50.050;8.690;2022-08-03T03:17:36;22.40;99.90
22908;DHT22;11620;50.050;8.690;2022-08-03T03:20:24;22.40;99.90
22908;DHT22;11620;50.050;8.690;2022-08-03T03:23:10;22.30;99.90
22908;DHT22;11620;50.050;8.690;2022-08-03T03:25:57;22.30;99.90
22908;DHT22;11620;50.050;8.690;2022-08-03T03:28:44;22.20;99.90
22908;DHT22;11620;50.050;8.690;2022-08-03T03:31:30;22.20;99.90
22908;DHT22;11620;50.050;8.690;2022-08-03T03:34:18;22.20;99.90
22908;DHT22;11620;50.050;8.690;2022-08-03T03:37:04;22.10;99.90
22908;DHT22;11620;50.050;8.690;2022-08-03T03:39:52;22.10;99.90
22908;DHT22;11620;50.050;8.690;2022-08-03T03:42:40;22.00;99.90
22908;DHT22;11620;50.050;8.690;2022-08-03T03:45:28;22.00;99.90
22908;DHT22;11620;50.050;8.690;2022-08-03T03:48:25;22.00;99.90
22908;DHT22;11620;50.050;8.690;2022-08-03T03:51:11;22.00;99.90
22908;DHT22;11620;50.050;8.690;2022-08-03T03:53:59;22.00;99.90
22908;DHT22;11620;50.050;8.690;2022-08-03T03:56:46;22.00;99.90
22908;DHT22;11620;50.050;8.690;2022-08-03T03:59:32;21.90;99.90
22908;DHT22;11620;50.050;8.690;2022-08-03T04:02:22;21.80;99.90
22908;DHT22;11620;50.050;8.690;2022-08-03T04:05:08;21.80;99.90
22908;DHT22;11620;50.050;8.690;2022-08-03T04:08:17;21.80;99.90
22908;DHT22;11620;50.050;8.690;2022-08-03T04:11:52;21.80;99.90
22908;DHT22;11620;50.050;8.690;2022-08-03T04:14:39;21.80;99.90
22908;DHT22;11620;50.050;8.690;2022-08-03T04:17:27;21.80;99.90
22908;DHT22;11620;50.050;8.690;2022-08-03T04:20:17;21.80;99.90
22908;DHT22;11620;50.050;8.690;2022-08-03T04:23:06;21.70;99.90
22908;DHT22;11620;50.050;8.690;2022-08-03T04:25:53;21.70;99.90
22908;DHT22;11620;50.050;8.690;2022-08-03T04:28:43;21.70;99.90
22908;DHT22;11620;50.050;8.690;2022-08-03T04:31:31;21.60;99.90
22908;DHT22;11620;50.050;8.690;2022-08-03T04:34:18;21.60;99.90
22908;DHT22;11620;50.050;8.690;2022-08-03T04:37:10;21.70;99.90
22908;DHT22;11620;50.050;8.690;2022-08-03T04:40:00;21.60;99.90
22908;DHT22;11620;50.050;8.690;2022-08-03T04:42:48;21.60;99.90
22908;DHT22;11620;50.050;8.690;2022-08-03T04:45:35;21.70;99.90
22908;DHT22;11620;50.050;8.690;2022-08-03T04:48:21;21.60;99.90
22908;DHT22;11620;50.050;8.690;2022-08-03T04:51:08;21.60;99.90
22908;DHT22;11620;50.050;8.690;2022-08-03T04:53:55;21.60;99.90
22908;DHT22;11620;50.050;8.690;2022-08-03T04:56:42;21.60;99.90
22908;DHT22;11620;50.050;8.690;2022-08-03T04:59:29;21.60;99.90
22908;DHT22;11620;50.050;8.690;2022-08-03T05:02:15;21.60;99.90
22908;DHT22;11620;50.050;8.690;2022-08-03T05:04:59;21.60;99.90
22908;DHT22;11620;50.050;8.690;2022-08-03T05:07:44;21.60;99.90
22908;DHT22;11620;50.050;8.690;2022-08-03T05:10:29;21.60;99.90
22908;DHT22;11620;50.050;8.690;2022-08-03T05:13:13;21.60;99.90
22908;DHT22;11620;50.050;8.690;2022-08-03T05:15:58;21.60;99.90
22908;DHT22;11620;50.050;8.690;2022-08-03T05:18:42;21.60;99.90
22908;DHT22;11620;50.050;8.690;2022-08-03T05:21:27;21.70;99.90
22908;DHT22;11620;50.050;8.690;2022-08-03T05:24:11;21.60;99.90
22908;DHT22;11620;50.050;8.690;2022-08-03T05:26:56;21.60;99.90
22908;DHT22;11620;50.050;8.690;2022-08-03T05:29:40;21.60;99.90
22908;DHT22;11620;50.050;8.690;2022-08-03T05:32:24;21.60;99.90
22908;DHT22;11620;50.050;8.690;2022-08-03T05:35:09;21.60;99.90
22908;DHT22;11620;50.050;8.690;2022-08-03T05:37:53;21.70;99.90
22908;DHT22;11620;50.050;8.690;2022-08-03T05:40:38;21.70;99.90
22908;DHT22;11620;50.050;8.690;2022-08-03T05:43:22;21.60;99.90
22908;DHT22;11620;50.050;8.690;2022-08-03T05:46:07;21.60;99.90
22908;DHT22;11620;50.050;8.690;2022-08-03T05:48:51;21.60;99.90
22908;DHT22;11620;50.050;8.690;2022-08-03T05:51:35;21.60;99.90
22908;DHT22;11620;50.050;8.690;2022-08-03T05:54:20;21.60;99.90
22908;DHT22;11620;50.050;8.690;2022-08-03T05:57:05;21.60;99.90
22908;DHT22;11620;50.050;8.690;2022-08-03T05:59:49;21.70;99.90
22908;DHT22;11620;50.050;8.690;2022-08-03T06:02:34;21.90;99.90
22908;DHT22;11620;50.050;8.690;2022-08-03T06:05:18;21.90;99.90
22908;DHT22;11620;50.050;8.690;2022-08-03T06:08:03;22.00;99.90
22908;DHT22;11620;50.050;8.690;2022-08-03T06:10:48;22.20;99.90
22908;DHT22;11620;50.050;8.690;2022-08-03T06:13:33;22.30;99.90
22908;DHT22;11620;50.050;8.690;2022-08-03T06:16:17;22.40;99.90
22908;DHT22;11620;50.050;8.690;2022-08-03T06:19:02;22.50;99.90
22908;DHT22;11620;50.050;8.690;2022-08-03T06:21:46;22.70;99.90
22908;DHT22;11620;50.050;8.690;2022-08-03T06:24:31;23.00;99.90
22908;DHT22;11620;50.050;8.690;2022-08-03T06:27:16;23.20;99.90
22908;DHT22;11620;50.050;8.690;2022-08-03T06:30:00;23.50;99.90
22908;DHT22;11620;50.050;8.690;2022-08-03T06:32:45;23.80;99.90
22908;DHT22;11620;50.050;8.690;2022-08-03T06:35:29;24.10;99.90
22908;DHT22;11620;50.050;8.690;2022-08-03T06:38:14;24.40;99.90
22908;DHT22;11620;50.050;8.690;2022-08-03T06:40:58;24.80;99.90
22908;DHT22;11620;50.050;8.690;2022-08-03T06:43:42;25.00;99.90
22908;DHT22;11620;50.050;8.690;2022-08-03T06:46:27;25.30;99.90
22908;DHT22;11620;50.050;8.690;2022-08-03T06:49:11;25.50;99.90
22908;DHT22;11620;50.050;8.690;2022-08-03T06:51:56;25.80;99.90
22908;DHT22;11620;50.050;8.690;2022-08-03T06:54:42;26.00;99.90
22908;DHT22;11620;50.050;8.690;2022-08-03T06:57:26;26.30;99.90
22908;DHT22;11620;50.050;8.690;2022-08-03T07:00:11;26.50;99.90
22908;DHT22;11620;50.050;8.690;2022-08-03T07:02:55;26.70;99.90
22908;DHT22;11620;50.050;8.690;2022-08-03T07:05:41;27.00;99.90
22908;DHT22;11620;50.050;8.690;2022-08-03T07:08:26;27.20;99.90
22908;DHT22;11620;50.050;8.690;2022-08-03T07:11:10;27.40;99.90
22908;DHT22;11620;50.050;8.690;2022-08-03T07:13:55;27.60;99.90
22908;DHT22;11620;50.050;8.690;2022-08-03T07:16:39;27.70;99.90
22908;DHT22;11620;50.050;8.690;2022-08-03T07:19:24;28.00;99.90
22908;DHT22;11620;50.050;8.690;2022-08-03T07:22:09;28.20;99.90
22908;DHT22;11620;50.050;8.690;2022-08-03T07:24:54;28.30;99.90
22908;DHT22;11620;50.050;8.690;2022-08-03T07:27:46;28.50;99.90
22908;DHT22;11620;50.050;8.690;2022-08-03T07:30:31;28.70;99.90
22908;DHT22;11620;50.050;8.690;2022-08-03T07:33:15;29.00;99.90
22908;DHT22;11620;50.050;8.690;2022-08-03T07:36:00;29.20;99.90
22908;DHT22;11620;50.050;8.690;2022-08-03T07:38:44;29.40;99.90
22908;DHT22;11620;50.050;8.690;2022-08-03T07:41:29;29.70;99.90
22908;DHT22;11620;50.050;8.690;2022-08-03T07:44:15;29.90;99.90
22908;DHT22;11620;50.050;8.690;2022-08-03T07:46:59;30.20;99.90
22908;DHT22;11620;50.050;8.690;2022-08-03T07:49:43;30.40;99.90
22908;DHT22;11620;50.050;8.690;2022-08-03T07:52:28;30.50;99.90
22908;DHT22;11620;50.050;8.690;2022-08-03T07:55:31;30.70;99.90
22908;DHT22;11620;50.050;8.690;2022-08-03T07:58:16;30.90;99.90
22908;DHT22;11620;50.050;8.690;2022-08-03T08:01:01;31.20;99.90
22908;DHT22;11620;50.050;8.690;2022-08-03T08:03:46;31.30;99.90
22908;DHT22;11620;50.050;8.690;2022-08-03T08:06:30;31.60;99.90
22908;DHT22;11620;50.050;8.690;2022-08-03T08:09:15;31.70;99.90
22908;DHT22;11620;50.050;8.690;2022-08-03T08:12:00;31.80;99.90
22908;DHT22;11620;50.050;8.690;2022-08-03T08:14:45;31.70;98.60
22908;DHT22;11620;50.050;8.690;2022-08-03T08:17:30;31.90;99.60
22908;DHT22;11620;50.050;8.690;2022-08-03T08:23:54;32.40;98.70
22908;DHT22;11620;50.050;8.690;2022-08-03T08:26:38;32.70;97.40
22908;DHT22;11620;50.050;8.690;2022-08-03T08:29:23;32.60;98.10
22908;DHT22;11620;50.050;8.690;2022-08-03T08:32:07;32.80;98.40
22908;DHT22;11620;50.050;8.690;2022-08-03T08:34:54;32.60;96.80
22908;DHT22;11620;50.050;8.690;2022-08-03T08:37:40;32.70;98.10
22908;DHT22;11620;50.050;8.690;2022-08-03T08:40:26;33.10;96.90
22908;DHT22;11620;50.050;8.690;2022-08-03T08:43:10;33.30;97.00
22908;DHT22;11620;50.050;8.690;2022-08-03T08:45:56;33.60;96.40
22908;DHT22;11620;50.050;8.690;2022-08-03T08:48:43;33.80;96.50
22908;DHT22;11620;50.050;8.690;2022-08-03T08:51:30;33.80;95.30
22908;DHT22;11620;50.050;8.690;2022-08-03T08:54:20;33.80;95.10
22908;DHT22;11620;50.050;8.690;2022-08-03T08:57:06;34.20;95.10
22908;DHT22;11620;50.050;8.690;2022-08-03T08:59:51;34.40;94.90
22908;DHT22;11620;50.050;8.690;2022-08-03T09:02:38;34.50;95.10
22908;DHT22;11620;50.050;8.690;2022-08-03T09:05:25;34.70;94.10
22908;DHT22;11620;50.050;8.690;2022-08-03T09:08:10;34.80;94.70
22908;DHT22;11620;50.050;8.690;2022-08-03T09:10:55;35.10;94.40
22908;DHT22;11620;50.050;8.690;2022-08-03T09:13:39;34.90;93.40
22908;DHT22;11620;50.050;8.690;2022-08-03T09:16:24;35.10;94.10
22908;DHT22;11620;50.050;8.690;2022-08-03T09:19:13;34.90;94.00
22908;DHT22;11620;50.050;8.690;2022-08-03T09:22:14;35.00;93.40
22908;DHT22;11620;50.050;8.690;2022-08-03T09:25:03;35.40;92.90
22908;DHT22;11620;50.050;8.690;2022-08-03T09:27:48;35.70;93.30
22908;DHT22;11620;50.050;8.690;2022-08-03T09:30:34;36.00;93.00
22908;DHT22;11620;50.050;8.690;2022-08-03T09:33:19;36.10;92.80
22908;DHT22;11620;50.050;8.690;2022-08-03T09:36:04;36.10;93.40
22908;DHT22;11620;50.050;8.690;2022-08-03T09:39:18;36.20;93.60
22908;DHT22;11620;50.050;8.690;2022-08-03T09:42:14;36.40;93.10
22908;DHT22;11620;50.050;8.690;2022-08-03T09:44:58;36.00;91.00
22908;DHT22;11620;50.050;8.690;2022-08-03T09:47:43;36.20;92.00
22908;DHT22;11620;50.050;8.690;2022-08-03T09:50:28;36.70;92.60
22908;DHT22;11620;50.050;8.690;2022-08-03T09:53:12;37.00;91.30
22908;DHT22;11620;50.050;8.690;2022-08-03T09:55:59;36.50;90.80
22908;DHT22;11620;50.050;8.690;2022-08-03T09:58:45;36.20;90.50
22908;DHT22;11620;50.050;8.690;2022-08-03T10:01:34;36.40;91.60
22908;DHT22;11620;50.050;8.690;2022-08-03T10:04:19;36.10;90.50
22908;DHT22;11620;50.050;8.690;2022-08-03T10:07:09;36.50;90.80
22908;DHT22;11620;50.050;8.690;2022-08-03T10:09:57;36.30;89.80
22908;DHT22;11620;50.050;8.690;2022-08-03T10:12:44;36.60;90.20
22908;DHT22;11620;50.050;8.690;2022-08-03T10:15:28;36.50;90.30
22908;DHT22;11620;50.050;8.690;2022-08-03T10:18:14;36.70;90.00
22908;DHT22;11620;50.050;8.690;2022-08-03T10:21:03;36.70;88.80
22908;DHT22;11620;50.050;8.690;2022-08-03T10:23:52;36.90;90.30
22908;DHT22;11620;50.050;8.690;2022-08-03T10:26:39;37.20;89.60
22908;DHT22;11620;50.050;8.690;2022-08-03T10:29:27;37.70;90.30
22908;DHT22;11620;50.050;8.690;2022-08-03T10:32:29;37.40;87.60
22908;DHT22;11620;50.050;8.690;2022-08-03T10:35:18;37.70;89.20
22908;DHT22;11620;50.050;8.690;2022-08-03T10:38:09;37.60;88.00
22908;DHT22;11620;50.050;8.690;2022-08-03T10:40:55;37.30;88.30
22908;DHT22;11620;50.050;8.690;2022-08-03T10:44:04;37.90;88.50
22908;DHT22;11620;50.050;8.690;2022-08-03T10:46:49;38.00;87.60
22908;DHT22;11620;50.050;8.690;2022-08-03T10:49:35;38.10;88.40
22908;DHT22;11620;50.050;8.690;2022-08-03T10:52:19;38.30;89.00
22908;DHT22;11620;50.050;8.690;2022-08-03T10:55:34;38.60;89.20
22908;DHT22;11620;50.050;8.690;2022-08-03T11:01:52;38.30;86.10
22908;DHT22;11620;50.050;8.690;2022-08-03T11:04:37;38.40;86.30
22908;DHT22;11620;50.050;8.690;2022-08-03T11:07:23;38.40;87.40
22908;DHT22;11620;50.050;8.690;2022-08-03T11:10:29;38.60;86.00
22908;DHT22;11620;50.050;8.690;2022-08-03T11:13:20;38.50;85.40
22908;DHT22;11620;50.050;8.690;2022-08-03T11:16:18;38.70;88.30
22908;DHT22;11620;50.050;8.690;2022-08-03T11:19:10;39.10;85.90
22908;DHT22;11620;50.050;8.690;2022-08-03T11:21:55;39.30;84.40
22908;DHT22;11620;50.050;8.690;2022-08-03T11:27:31;39.00;83.50
22908;DHT22;11620;50.050;8.690;2022-08-03T11:33:01;39.10;85.70
22908;DHT22;11620;50.050;8.690;2022-08-03T11:36:00;39.10;87.10
22908;DHT22;11620;50.050;8.690;2022-08-03T11:39:11;37.60;84.00
22908;DHT22;11620;50.050;8.690;2022-08-03T11:41:55;37.30;84.60
22908;DHT22;11620;50.050;8.690;2022-08-03T11:44:40;37.50;85.20
22908;DHT22;11620;50.050;8.690;2022-08-03T11:47:28;37.60;85.60
22908;DHT22;11620;50.050;8.690;2022-08-03T11:50:13;38.10;84.20
22908;DHT22;11620;50.050;8.690;2022-08-03T11:53:00;38.50;83.80
22908;DHT22;11620;50.050;8.690;2022-08-03T11:55:46;39.00;86.60
22908;DHT22;11620;50.050;8.690;2022-08-03T11:58:33;39.40;85.30
22908;DHT22;11620;50.050;8.690;2022-08-03T12:01:19;39.60;85.10
22908;DHT22;11620;50.050;8.690;2022-08-03T12:04:05;39.60;82.80
22908;DHT22;11620;50.050;8.690;2022-08-03T12:07:00;38.30;82.60
22908;DHT22;11620;50.050;8.690;2022-08-03T12:10:08;38.30;83.60
22908;DHT22;11620;50.050;8.690;2022-08-03T12:12:57;38.90;81.70
22908;DHT22;11620;50.050;8.690;2022-08-03T12:15:42;39.40;83.70
22908;DHT22;11620;50.050;8.690;2022-08-03T12:18:27;39.70;82.80
22908;DHT22;11620;50.050;8.690;2022-08-03T12:21:12;39.30;80.90
22908;DHT22;11620;50.050;8.690;2022-08-03T12:23:58;39.70;82.50
22908;DHT22;11620;50.050;8.690;2022-08-03T12:26:49;40.00;82.50
22908;DHT22;11620;50.050;8.690;2022-08-03T12:29:34;40.10;80.30
22908;DHT22;11620;50.050;8.690;2022-08-03T12:32:19;40.20;80.70
22908;DHT22;11620;50.050;8.690;2022-08-03T12:35:04;40.50;81.10
22908;DHT22;11620;50.050;8.690;2022-08-03T12:37:50;40.40;80.00
22908;DHT22;11620;50.050;8.690;2022-08-03T12:40:35;40.30;79.50
22908;DHT22;11620;50.050;8.690;2022-08-03T12:43:19;39.40;79.90
22908;DHT22;11620;50.050;8.690;2022-08-03T12:46:17;39.20;80.60
22908;DHT22;11620;50.050;8.690;2022-08-03T12:55:19;39.30;80.50
22908;DHT22;11620;50.050;8.690;2022-08-03T12:58:07;40.00;81.50
22908;DHT22;11620;50.050;8.690;2022-08-03T13:00:54;40.30;79.30
22908;DHT22;11620;50.050;8.690;2022-08-03T13:03:46;40.60;79.90
22908;DHT22;11620;50.050;8.690;2022-08-03T13:06:31;40.60;79.70
22908;DHT22;11620;50.050;8.690;2022-08-03T13:09:15;40.50;79.50
22908;DHT22;11620;50.050;8.690;2022-08-03T13:12:12;40.70;78.70
22908;DHT22;11620;50.050;8.690;2022-08-03T13:14:58;40.70;79.50
22908;DHT22;11620;50.050;8.690;2022-08-03T13:17:43;40.80;79.80
22908;DHT22;11620;50.050;8.690;2022-08-03T13:20:27;40.90;80.10
22908;DHT22;11620;50.050;8.690;2022-08-03T13:23:12;41.10;80.90
22908;DHT22;11620;50.050;8.690;2022-08-03T13:25:56;41.10;80.10
22908;DHT22;11620;50.050;8.690;2022-08-03T13:28:41;40.70;80.00
22908;DHT22;11620;50.050;8.690;2022-08-03T13:31:25;40.00;78.50
22908;DHT22;11620;50.050;8.690;2022-08-03T13:34:10;40.10;78.70
22908;DHT22;11620;50.050;8.690;2022-08-03T13:36:54;40.50;78.80
22908;DHT22;11620;50.050;8.690;2022-08-03T13:39:40;40.20;78.90
22908;DHT22;11620;50.050;8.690;2022-08-03T13:42:24;39.70;78.90
22908;DHT22;11620;50.050;8.690;2022-08-03T13:45:09;39.80;78.60
22908;DHT22;11620;50.050;8.690;2022-08-03T13:47:54;40.00;78.30
22908;DHT22;11620;50.050;8.690;2022-08-03T13:50:39;39.20;78.20
22908;DHT22;11620;50.050;8.690;2022-08-03T13:53:23;39.30;80.30
22908;DHT22;11620;50.050;8.690;2022-08-03T13:56:08;39.40;79.00
22908;DHT22;11620;50.050;8.690;2022-08-03T13:58:53;39.00;79.80
22908;DHT22;11620;50.050;8.690;2022-08-03T14:01:37;38.80;79.40
22908;DHT22;11620;50.050;8.690;2022-08-03T14:04:21;39.00;81.30
22908;DHT22;11620;50.050;8.690;2022-08-03T14:07:06;39.30;81.20
22908;DHT22;11620;50.050;8.690;2022-08-03T14:09:51;39.70;80.20
22908;DHT22;11620;50.050;8.690;2022-08-03T14:12:35;40.10;80.30
22908;DHT22;11620;50.050;8.690;2022-08-03T14:15:20;40.00;78.60
22908;DHT22;11620;50.050;8.690;2022-08-03T14:18:08;40.10;79.40
22908;DHT22;11620;50.050;8.690;2022-08-03T14:20:53;40.20;78.90
22908;DHT22;11620;50.050;8.690;2022-08-03T14:23:38;40.20;79.80
22908;DHT22;11620;50.050;8.690;2022-08-03T14:26:23;40.30;78.40
22908;DHT22;11620;50.050;8.690;2022-08-03T14:29:07;40.30;79.20
22908;DHT22;11620;50.050;8.690;2022-08-03T14:31:51;40.00;79.20
22908;DHT22;11620;50.050;8.690;2022-08-03T14:34:35;39.40;78.40
22908;DHT22;11620;50.050;8.690;2022-08-03T14:37:22;39.40;78.80
22908;DHT22;11620;50.050;8.690;2022-08-03T14:40:08;39.60;80.30
22908;DHT22;11620;50.050;8.690;2022-08-03T14:42:55;39.80;80.40
22908;DHT22;11620;50.050;8.690;2022-08-03T14:45:41;40.00;80.10
22908;DHT22;11620;50.050;8.690;2022-08-03T14:48:27;40.00;79.80
22908;DHT22;11620;50.050;8.690;2022-08-03T14:51:14;40.10;79.50
22908;DHT22;11620;50.050;8.690;2022-08-03T14:54:00;39.90;80.00
22908;DHT22;11620;50.050;8.690;2022-08-03T14:56:46;39.80;80.10
22908;DHT22;11620;50.050;8.690;2022-08-03T14:59:33;39.80;79.50
22908;DHT22;11620;50.050;8.690;2022-08-03T15:02:19;40.00;81.20
22908;DHT22;11620;50.050;8.690;2022-08-03T15:05:06;39.30;80.30
22908;DHT22;11620;50.050;8.690;2022-08-03T15:07:53;39.30;79.50
22908;DHT22;11620;50.050;8.690;2022-08-03T15:10:39;39.00;80.40
22908;DHT22;11620;50.050;8.690;2022-08-03T15:13:25;39.10;80.90
22908;DHT22;11620;50.050;8.690;2022-08-03T15:16:11;39.30;80.80
22908;DHT22;11620;50.050;8.690;2022-08-03T15:18:58;39.40;80.00
22908;DHT22;11620;50.050;8.690;2022-08-03T15:21:45;39.60;82.20
22908;DHT22;11620;50.050;8.690;2022-08-03T15:24:32;39.50;80.40
22908;DHT22;11620;50.050;8.690;2022-08-03T15:27:18;39.40;81.60
22908;DHT22;11620;50.050;8.690;2022-08-03T15:30:05;39.40;80.40
22908;DHT22;11620;50.050;8.690;2022-08-03T15:32:51;39.40;81.80
22908;DHT22;11620;50.050;8.690;2022-08-03T15:35:37;39.30;81.30
22908;DHT22;11620;50.050;8.690;2022-08-03T15:38:24;39.20;81.90
22908;DHT22;11620;50.050;8.690;2022-08-03T15:41:14;38.90;80.70
22908;DHT22;11620;50.050;8.690;2022-08-03T15:44:01;38.90;81.80
22908;DHT22;11620;50.050;8.690;2022-08-03T15:46:47;38.90;81.10
22908;DHT22;11620;50.050;8.690;2022-08-03T15:49:33;38.70;79.70
22908;DHT22;11620;50.050;8.690;2022-08-03T15:52:20;38.70;80.50
22908;DHT22;11620;50.050;8.690;2022-08-03T15:55:07;38.60;80.20
22908;DHT22;11620;50.050;8.690;2022-08-03T15:57:53;38.00;80.20
22908;DHT22;11620;50.050;8.690;2022-08-03T16:00:40;37.90;80.10
22908;DHT22;11620;50.050;8.690;2022-08-03T16:03:27;37.70;81.60
22908;DHT22;11620;50.050;8.690;2022-08-03T16:06:19;37.70;81.00
22908;DHT22;11620;50.050;8.690;2022-08-03T16:09:06;37.00;80.50
22908;DHT22;11620;50.050;8.690;2022-08-03T16:11:53;36.80;81.70
22908;DHT22;11620;50.050;8.690;2022-08-03T16:14:40;36.70;83.30
22908;DHT22;11620;50.050;8.690;2022-08-03T16:17:27;37.00;82.90
22908;DHT22;11620;50.050;8.690;2022-08-03T16:20:13;37.10;82.50
22908;DHT22;11620;50.050;8.690;2022-08-03T16:23:00;37.20;82.10
22908;DHT22;11620;50.050;8.690;2022-08-03T16:25:47;37.00;82.00
22908;DHT22;11620;50.050;8.690;2022-08-03T16:28:33;36.70;82.20
22908;DHT22;11620;50.050;8.690;2022-08-03T16:31:23;36.70;81.60
22908;DHT22;11620;50.050;8.690;2022-08-03T16:34:12;36.70;83.50
22908;DHT22;11620;50.050;8.690;2022-08-03T16:36:58;36.80;83.10
22908;DHT22;11620;50.050;8.690;2022-08-03T16:39:44;36.90;82.80
22908;DHT22;11620;50.050;8.690;2022-08-03T16:42:33;36.50;81.20
22908;DHT22;11620;50.050;8.690;2022-08-03T16:45:19;36.30;82.00
22908;DHT22;11620;50.050;8.690;2022-08-03T16:48:06;36.30;82.10
22908;DHT22;11620;50.050;8.690;2022-08-03T16:50:52;36.20;82.70
22908;DHT22;11620;50.050;8.690;2022-08-03T16:53:39;36.10;82.40
22908;DHT22;11620;50.050;8.690;2022-08-03T16:56:26;35.90;82.10
22908;DHT22;11620;50.050;8.690;2022-08-03T16:59:12;35.90;82.70
22908;DHT22;11620;50.050;8.690;2022-08-03T17:02:02;36.10;83.60
22908;DHT22;11620;50.050;8.690;2022-08-03T17:04:49;36.20;82.40
22908;DHT22;11620;50.050;8.690;2022-08-03T17:07:37;36.00;82.30
22908;DHT22;11620;50.050;8.690;2022-08-03T17:10:23;36.00;83.70
22908;DHT22;11620;50.050;8.690;2022-08-03T17:13:09;35.90;82.90
22908;DHT22;11620;50.050;8.690;2022-08-03T17:15:56;35.90;82.80
22908;DHT22;11620;50.050;8.690;2022-08-03T17:18:51;35.70;82.70
22908;DHT22;11620;50.050;8.690;2022-08-03T17:21:44;35.90;84.00
22908;DHT22;11620;50.050;8.690;2022-08-03T17:25:02;36.00;83.20
22908;DHT22;11620;50.050;8.690;2022-08-03T17:27:51;36.00;83.80
22908;DHT22;11620;50.050;8.690;2022-08-03T17:30:38;36.00;83.40
22908;DHT22;11620;50.050;8.690;2022-08-03T17:33:44;36.00;82.50
22908;DHT22;11620;50.050;8.690;2022-08-03T17:36:32;35.80;85.00
22908;DHT22;11620;50.050;8.690;2022-08-03T17:39:20;35.60;83.60
22908;DHT22;11620;50.050;8.690;2022-08-03T17:42:10;35.40;83.70
22908;DHT22;11620;50.050;8.690;2022-08-03T17:44:56;35.10;85.20
22908;DHT22;11620;50.050;8.690;2022-08-03T17:47:43;35.00;83.90
22908;DHT22;11620;50.050;8.690;2022-08-03T17:50:51;35.10;86.30
22908;DHT22;11620;50.050;8.690;2022-08-03T17:54:39;35.10;86.40
22908;DHT22;11620;50.050;8.690;2022-08-03T17:57:02;35.00;84.40
22908;DHT22;11620;50.050;8.690;2022-08-03T18:02:44;34.90;89.80
22908;DHT22;11620;50.050;8.690;2022-08-03T18:05:55;34.70;85.10
22908;DHT22;11620;50.050;8.690;2022-08-03T18:08:47;34.60;85.10
22908;DHT22;11620;50.050;8.690;2022-08-03T18:11:36;34.60;86.30
22908;DHT22;11620;50.050;8.690;2022-08-03T18:14:37;34.50;87.50